sensor_id;sensor_type;location;lat;lon;timestamp;P1;durP1;ratioP1;P2;durP2;ratioP2
71038;SDS011;58692;43.212;27.908;2023-06-24T00:00:38;29.52;;;22.17;;
71038;SDS011;58692;43.212;27.908;2023-06-24T00:03:04;28.90;;;21.20;;
71038;SDS011;58692;43.212;27.908;2023-06-24T00:05:32;25.17;;;19.88;;
71038;SDS011;58692;43.212;27.908;2023-06-24T00:07:58;27.00;;;20.00;;
71038;SDS011;58692;43.212;27.908;2023-06-24T00:10:27;28.98;;;20.73;;
71038;SDS011;58692;43.212;27.908;2023-06-24T00:12:53;23.17;;;17.30;;
71038;SDS011;58692;43.212;27.908;2023-06-24T00:15:19;24.37;;;16.77;;
71038;SDS011;58692;43.212;27.908;2023-06-24T00:17:44;22.00;;;15.15;;
71038;SDS011;58692;43.212;27.908;2023-06-24T00:20:10;20.37;;;14.13;;
71038;SDS011;58692;43.212;27.908;2023-06-24T00:22:38;20.30;;;14.40;;
71038;SDS011;58692;43.212;27.908;2023-06-24T00:25:08;21.55;;;14.45;;
71038;SDS011;58692;43.212;27.908;2023-06-24T00:27:34;19.90;;;13.13;;
71038;SDS011;58692;43.212;27.908;2023-06-24T00:30:00;20.53;;;12.80;;
71038;SDS011;58692;43.212;27.908;2023-06-24T00:32:25;20.77;;;13.07;;
71038;SDS011;58692;43.212;27.908;2023-06-24T00:34:51;19.63;;;12.77;;
71038;SDS011;58692;43.212;27.908;2023-06-24T00:37:16;22.33;;;13.90;;
71038;SDS011;58692;43.212;27.908;2023-06-24T00:39:42;21.75;;;13.95;;
71038;SDS011;58692;43.212;27.908;2023-06-24T00:42:07;21.67;;;14.30;;
71038;SDS011;58692;43.212;27.908;2023-06-24T00:44:33;24.37;;;14.33;;
71038;SDS011;58692;43.212;27.908;2023-06-24T00:46:58;26.58;;;15.40;;
71038;SDS011;58692;43.212;27.908;2023-06-24T00:49:23;28.30;;;16.10;;
71038;SDS011;58692;43.212;27.908;2023-06-24T00:51:49;26.37;;;15.77;;
71038;SDS011;58692;43.212;27.908;2023-06-24T00:54:16;25.73;;;15.35;;
71038;SDS011;58692;43.212;27.908;2023-06-24T00:56:42;27.17;;;15.77;;
71038;SDS011;58692;43.212;27.908;2023-06-24T00:59:08;28.55;;;16.05;;
71038;SDS011;58692;43.212;27.908;2023-06-24T01:01:37;24.63;;;15.83;;
71038;SDS011;58692;43.212;27.908;2023-06-24T01:04:03;29.73;;;16.48;;
71038;SDS011;58692;43.212;27.908;2023-06-24T01:06:29;23.10;;;15.48;;
71038;SDS011;58692;43.212;27.908;2023-06-24T01:08:57;21.52;;;14.82;;
71038;SDS011;58692;43.212;27.908;2023-06-24T01:11:25;26.00;;;15.83;;
71038;SDS011;58692;43.212;27.908;2023-06-24T01:13:51;26.08;;;15.75;;
71038;SDS011;58692;43.212;27.908;2023-06-24T01:16:22;25.90;;;15.43;;
71038;SDS011;58692;43.212;27.908;2023-06-24T01:18:55;25.80;;;15.20;;
71038;SDS011;58692;43.212;27.908;2023-06-24T01:24:17;25.55;;;16.20;;
71038;SDS011;58692;43.212;27.908;2023-06-24T01:26:52;26.35;;;15.18;;
71038;SDS011;58692;43.212;27.908;2023-06-24T01:29:36;25.52;;;15.65;;
71038;SDS011;58692;43.212;27.908;2023-06-24T01:32:26;25.23;;;15.07;;
71038;SDS011;58692;43.212;27.908;2023-06-24T01:34:59;25.43;;;15.03;;
71038;SDS011;58692;43.212;27.908;2023-06-24T01:37:33;24.00;;;14.50;;
71038;SDS011;58692;43.212;27.908;2023-06-24T01:40:05;24.55;;;14.85;;
71038;SDS011;58692;43.212;27.908;2023-06-24T01:42:37;27.85;;;15.35;;
71038;SDS011;58692;43.212;27.908;2023-06-24T01:45:06;25.38;;;14.88;;
71038;SDS011;58692;43.212;27.908;2023-06-24T01:47:33;23.97;;;15.13;;
71038;SDS011;58692;43.212;27.908;2023-06-24T01:50:00;24.42;;;15.50;;
71038;SDS011;58692;43.212;27.908;2023-06-24T01:52:28;25.15;;;15.27;;
71038;SDS011;58692;43.212;27.908;2023-06-24T01:54:55;23.98;;;15.68;;
71038;SDS011;58692;43.212;27.908;2023-06-24T01:57:21;22.60;;;14.65;;
71038;SDS011;58692;43.212;27.908;2023-06-24T01:59:48;26.67;;;15.40;;
71038;SDS011;58692;43.212;27.908;2023-06-24T02:02:15;26.52;;;16.15;;
71038;SDS011;58692;43.212;27.908;2023-06-24T02:04:45;27.30;;;15.88;;
71038;SDS011;58692;43.212;27.908;2023-06-24T02:07:10;23.17;;;15.67;;
71038;SDS011;58692;43.212;27.908;2023-06-24T02:09:37;25.33;;;15.27;;
71038;SDS011;58692;43.212;27.908;2023-06-24T02:12:04;26.70;;;15.38;;
71038;SDS011;58692;43.212;27.908;2023-06-24T02:14:31;25.33;;;15.60;;
71038;SDS011;58692;43.212;27.908;2023-06-24T02:17:00;27.50;;;16.55;;
71038;SDS011;58692;43.212;27.908;2023-06-24T02:19:30;27.80;;;16.33;;
71038;SDS011;58692;43.212;27.908;2023-06-24T02:21:56;28.30;;;16.60;;
71038;SDS011;58692;43.212;27.908;2023-06-24T02:24:24;26.15;;;16.83;;
71038;SDS011;58692;43.212;27.908;2023-06-24T02:26:51;26.08;;;16.67;;
71038;SDS011;58692;43.212;27.908;2023-06-24T02:29:18;30.40;;;17.17;;
71038;SDS011;58692;43.212;27.908;2023-06-24T02:31:45;25.77;;;16.90;;
71038;SDS011;58692;43.212;27.908;2023-06-24T02:34:10;25.95;;;16.45;;
71038;SDS011;58692;43.212;27.908;2023-06-24T02:36:36;25.83;;;15.93;;
71038;SDS011;58692;43.212;27.908;2023-06-24T02:39:01;25.50;;;16.75;;
71038;SDS011;58692;43.212;27.908;2023-06-24T02:41:27;26.43;;;17.97;;
71038;SDS011;58692;43.212;27.908;2023-06-24T02:43:52;32.93;;;19.97;;
71038;SDS011;58692;43.212;27.908;2023-06-24T02:46:18;30.70;;;19.90;;
71038;SDS011;58692;43.212;27.908;2023-06-24T02:48:46;34.55;;;22.30;;
71038;SDS011;58692;43.212;27.908;2023-06-24T02:51:13;31.53;;;21.00;;
71038;SDS011;58692;43.212;27.908;2023-06-24T02:53:39;33.15;;;20.60;;
71038;SDS011;58692;43.212;27.908;2023-06-24T02:56:05;33.05;;;20.45;;
71038;SDS011;58692;43.212;27.908;2023-06-24T02:58:33;35.30;;;20.50;;
71038;SDS011;58692;43.212;27.908;2023-06-24T03:01:02;29.15;;;19.23;;
71038;SDS011;58692;43.212;27.908;2023-06-24T03:03:28;33.17;;;21.03;;
71038;SDS011;58692;43.212;27.908;2023-06-24T03:05:54;34.97;;;20.70;;
71038;SDS011;58692;43.212;27.908;2023-06-24T03:08:22;34.35;;;19.92;;
71038;SDS011;58692;43.212;27.908;2023-06-24T03:10:49;33.83;;;19.70;;
71038;SDS011;58692;43.212;27.908;2023-06-24T03:13:16;33.95;;;20.00;;
71038;SDS011;58692;43.212;27.908;2023-06-24T03:15:42;35.87;;;19.77;;
71038;SDS011;58692;43.212;27.908;2023-06-24T03:18:07;33.33;;;19.17;;
71038;SDS011;58692;43.212;27.908;2023-06-24T03:20:33;38.38;;;19.52;;
71038;SDS011;58692;43.212;27.908;2023-06-24T03:23:05;33.60;;;18.97;;
71038;SDS011;58692;43.212;27.908;2023-06-24T03:25:32;32.03;;;18.08;;
71038;SDS011;58692;43.212;27.908;2023-06-24T03:27:58;30.60;;;17.83;;
71038;SDS011;58692;43.212;27.908;2023-06-24T03:30:25;27.42;;;17.58;;
71038;SDS011;58692;43.212;27.908;2023-06-24T03:32:51;27.55;;;17.67;;
71038;SDS011;58692;43.212;27.908;2023-06-24T03:35:17;27.33;;;17.07;;
71038;SDS011;58692;43.212;27.908;2023-06-24T03:37:43;26.80;;;16.90;;
71038;SDS011;58692;43.212;27.908;2023-06-24T03:40:09;29.47;;;17.83;;
71038;SDS011;58692;43.212;27.908;2023-06-24T03:42:34;29.63;;;18.15;;
71038;SDS011;58692;43.212;27.908;2023-06-24T03:45:01;33.23;;;20.73;;
71038;SDS011;58692;43.212;27.908;2023-06-24T03:47:28;33.30;;;22.42;;
71038;SDS011;58692;43.212;27.908;2023-06-24T03:49:54;39.57;;;25.50;;
71038;SDS011;58692;43.212;27.908;2023-06-24T03:52:19;34.17;;;23.60;;
71038;SDS011;58692;43.212;27.908;2023-06-24T03:54:44;31.57;;;21.63;;
71038;SDS011;58692;43.212;27.908;2023-06-24T03:57:12;29.25;;;20.48;;
71038;SDS011;58692;43.212;27.908;2023-06-24T03:59:37;27.73;;;18.13;;
71038;SDS011;58692;43.212;27.908;2023-06-24T04:02:04;27.07;;;18.77;;
71038;SDS011;58692;43.212;27.908;2023-06-24T04:04:33;25.27;;;17.48;;
71038;SDS011;58692;43.212;27.908;2023-06-24T04:06:59;26.85;;;18.73;;
71038;SDS011;58692;43.212;27.908;2023-06-24T04:09:24;31.23;;;19.30;;
71038;SDS011;58692;43.212;27.908;2023-06-24T04:11:50;35.53;;;21.00;;
71038;SDS011;58692;43.212;27.908;2023-06-24T04:14:15;30.38;;;19.77;;
71038;SDS011;58692;43.212;27.908;2023-06-24T04:16:41;22.77;;;14.33;;
71038;SDS011;58692;43.212;27.908;2023-06-24T04:19:06;22.70;;;14.53;;
71038;SDS011;58692;43.212;27.908;2023-06-24T04:21:32;27.10;;;16.20;;
71038;SDS011;58692;43.212;27.908;2023-06-24T04:23:57;32.83;;;17.27;;
71038;SDS011;58692;43.212;27.908;2023-06-24T04:26:23;29.33;;;17.17;;
71038;SDS011;58692;43.212;27.908;2023-06-24T04:28:48;27.47;;;16.77;;
71038;SDS011;58692;43.212;27.908;2023-06-24T04:31:14;23.80;;;14.33;;
71038;SDS011;58692;43.212;27.908;2023-06-24T04:33:39;24.70;;;16.27;;
71038;SDS011;58692;43.212;27.908;2023-06-24T04:36:05;31.37;;;16.67;;
71038;SDS011;58692;43.212;27.908;2023-06-24T04:38:30;27.00;;;16.38;;
71038;SDS011;58692;43.212;27.908;2023-06-24T04:40:56;26.03;;;15.37;;
71038;SDS011;58692;43.212;27.908;2023-06-24T04:43:24;26.50;;;14.90;;
71038;SDS011;58692;43.212;27.908;2023-06-24T04:45:50;25.05;;;15.07;;
71038;SDS011;58692;43.212;27.908;2023-06-24T04:48:15;28.93;;;14.17;;
71038;SDS011;58692;43.212;27.908;2023-06-24T04:50:41;23.47;;;13.70;;
71038;SDS011;58692;43.212;27.908;2023-06-24T04:53:06;21.27;;;13.48;;
71038;SDS011;58692;43.212;27.908;2023-06-24T04:55:32;22.27;;;13.47;;
71038;SDS011;58692;43.212;27.908;2023-06-24T04:57:57;13.07;;;7.67;;
71038;SDS011;58692;43.212;27.908;2023-06-24T05:00:23;11.83;;;7.00;;
71038;SDS011;58692;43.212;27.908;2023-06-24T05:02:49;11.10;;;6.90;;
71038;SDS011;58692;43.212;27.908;2023-06-24T05:05:15;11.05;;;6.90;;
71038;SDS011;58692;43.212;27.908;2023-06-24T05:07:41;9.27;;;6.37;;
71038;SDS011;58692;43.212;27.908;2023-06-24T05:10:06;11.30;;;6.43;;
71038;SDS011;58692;43.212;27.908;2023-06-24T05:12:32;11.10;;;6.27;;
71038;SDS011;58692;43.212;27.908;2023-06-24T05:14:57;9.85;;;6.32;;
71038;SDS011;58692;43.212;27.908;2023-06-24T05:17:23;9.53;;;6.37;;
71038;SDS011;58692;43.212;27.908;2023-06-24T05:19:48;10.98;;;6.63;;
71038;SDS011;58692;43.212;27.908;2023-06-24T05:22:14;11.10;;;6.53;;
71038;SDS011;58692;43.212;27.908;2023-06-24T05:24:40;9.33;;;6.60;;
71038;SDS011;58692;43.212;27.908;2023-06-24T05:27:06;11.32;;;6.68;;
71038;SDS011;58692;43.212;27.908;2023-06-24T05:29:32;9.55;;;6.60;;
71038;SDS011;58692;43.212;27.908;2023-06-24T05:31:58;11.68;;;6.80;;
71038;SDS011;58692;43.212;27.908;2023-06-24T05:34:25;10.07;;;6.50;;
71038;SDS011;58692;43.212;27.908;2023-06-24T05:36:50;11.03;;;6.30;;
71038;SDS011;58692;43.212;27.908;2023-06-24T05:39:16;11.75;;;7.10;;
71038;SDS011;58692;43.212;27.908;2023-06-24T05:41:42;11.13;;;6.50;;
71038;SDS011;58692;43.212;27.908;2023-06-24T05:44:08;10.65;;;5.65;;
71038;SDS011;58692;43.212;27.908;2023-06-24T05:46:35;10.05;;;6.70;;
71038;SDS011;58692;43.212;27.908;2023-06-24T05:49:01;11.47;;;6.77;;
71038;SDS011;58692;43.212;27.908;2023-06-24T05:51:27;10.35;;;6.40;;
71038;SDS011;58692;43.212;27.908;2023-06-24T05:53:52;10.57;;;6.87;;
71038;SDS011;58692;43.212;27.908;2023-06-24T05:56:18;11.10;;;7.07;;
71038;SDS011;58692;43.212;27.908;2023-06-24T05:58:45;10.32;;;6.32;;
71038;SDS011;58692;43.212;27.908;2023-06-24T06:01:10;12.30;;;6.73;;
71038;SDS011;58692;43.212;27.908;2023-06-24T06:03:36;8.90;;;6.37;;
71038;SDS011;58692;43.212;27.908;2023-06-24T06:06:01;10.52;;;7.03;;
71038;SDS011;58692;43.212;27.908;2023-06-24T06:08:27;9.00;;;6.43;;
71038;SDS011;58692;43.212;27.908;2023-06-24T06:10:53;10.18;;;6.80;;
71038;SDS011;58692;43.212;27.908;2023-06-24T06:13:18;11.90;;;6.60;;
71038;SDS011;58692;43.212;27.908;2023-06-24T06:15:44;10.73;;;6.67;;
71038;SDS011;58692;43.212;27.908;2023-06-24T06:18:10;10.13;;;6.80;;
71038;SDS011;58692;43.212;27.908;2023-06-24T06:20:35;9.48;;;6.60;;
71038;SDS011;58692;43.212;27.908;2023-06-24T06:23:01;11.77;;;6.90;;
71038;SDS011;58692;43.212;27.908;2023-06-24T06:25:26;11.80;;;7.27;;
71038;SDS011;58692;43.212;27.908;2023-06-24T06:27:52;9.32;;;6.35;;
71038;SDS011;58692;43.212;27.908;2023-06-24T06:30:18;11.27;;;6.87;;
71038;SDS011;58692;43.212;27.908;2023-06-24T06:32:43;10.70;;;7.10;;
71038;SDS011;58692;43.212;27.908;2023-06-24T06:35:09;9.60;;;7.00;;
71038;SDS011;58692;43.212;27.908;2023-06-24T06:37:34;10.77;;;6.77;;
71038;SDS011;58692;43.212;27.908;2023-06-24T06:40:00;9.38;;;6.40;;
71038;SDS011;58692;43.212;27.908;2023-06-24T06:42:25;10.67;;;6.80;;
71038;SDS011;58692;43.212;27.908;2023-06-24T06:44:51;9.90;;;6.53;;
71038;SDS011;58692;43.212;27.908;2023-06-24T06:47:16;9.68;;;6.80;;
71038;SDS011;58692;43.212;27.908;2023-06-24T06:49:42;10.53;;;6.67;;
71038;SDS011;58692;43.212;27.908;2023-06-24T06:52:07;9.23;;;6.40;;
71038;SDS011;58692;43.212;27.908;2023-06-24T06:54:33;10.23;;;6.90;;
71038;SDS011;58692;43.212;27.908;2023-06-24T06:57:00;10.20;;;6.83;;
71038;SDS011;58692;43.212;27.908;2023-06-24T06:59:27;9.95;;;6.65;;
71038;SDS011;58692;43.212;27.908;2023-06-24T07:01:52;12.17;;;7.10;;
71038;SDS011;58692;43.212;27.908;2023-06-24T07:04:18;10.02;;;6.80;;
71038;SDS011;58692;43.212;27.908;2023-06-24T07:06:44;12.18;;;6.88;;
71038;SDS011;58692;43.212;27.908;2023-06-24T07:09:10;11.27;;;6.50;;
71038;SDS011;58692;43.212;27.908;2023-06-24T07:11:35;10.23;;;6.43;;
71038;SDS011;58692;43.212;27.908;2023-06-24T07:14:01;10.47;;;6.60;;
71038;SDS011;58692;43.212;27.908;2023-06-24T07:16:26;10.40;;;6.60;;
71038;SDS011;58692;43.212;27.908;2023-06-24T07:18:51;11.40;;;6.67;;
71038;SDS011;58692;43.212;27.908;2023-06-24T07:21:17;10.48;;;6.38;;
71038;SDS011;58692;43.212;27.908;2023-06-24T07:23:42;11.37;;;7.00;;
71038;SDS011;58692;43.212;27.908;2023-06-24T07:26:08;12.63;;;6.70;;
71038;SDS011;58692;43.212;27.908;2023-06-24T07:28:33;11.47;;;6.70;;
71038;SDS011;58692;43.212;27.908;2023-06-24T07:30:59;10.80;;;6.00;;
71038;SDS011;58692;43.212;27.908;2023-06-24T07:33:25;8.83;;;6.10;;
71038;SDS011;58692;43.212;27.908;2023-06-24T07:35:50;10.57;;;7.40;;
71038;SDS011;58692;43.212;27.908;2023-06-24T07:38:16;10.17;;;6.80;;
71038;SDS011;58692;43.212;27.908;2023-06-24T07:40:41;12.05;;;6.70;;
71038;SDS011;58692;43.212;27.908;2023-06-24T07:43:07;11.63;;;6.93;;
71038;SDS011;58692;43.212;27.908;2023-06-24T07:45:32;11.70;;;6.97;;
71038;SDS011;58692;43.212;27.908;2023-06-24T07:47:58;11.27;;;6.90;;
71038;SDS011;58692;43.212;27.908;2023-06-24T07:50:23;11.33;;;6.80;;
71038;SDS011;58692;43.212;27.908;2023-06-24T07:52:49;10.48;;;6.20;;
71038;SDS011;58692;43.212;27.908;2023-06-24T07:55:15;9.13;;;6.13;;
71038;SDS011;58692;43.212;27.908;2023-06-24T07:57:44;10.17;;;6.50;;
71038;SDS011;58692;43.212;27.908;2023-06-24T08:00:10;8.98;;;6.55;;
71038;SDS011;58692;43.212;27.908;2023-06-24T08:02:36;11.20;;;6.90;;
71038;SDS011;58692;43.212;27.908;2023-06-24T08:05:02;11.90;;;7.50;;
71038;SDS011;58692;43.212;27.908;2023-06-24T08:07:28;10.60;;;6.22;;
71038;SDS011;58692;43.212;27.908;2023-06-24T08:09:53;11.10;;;6.53;;
71038;SDS011;58692;43.212;27.908;2023-06-24T08:12:19;10.93;;;6.90;;
71038;SDS011;58692;43.212;27.908;2023-06-24T08:14:44;9.37;;;6.53;;
71038;SDS011;58692;43.212;27.908;2023-06-24T08:17:10;10.87;;;6.60;;
71038;SDS011;58692;43.212;27.908;2023-06-24T08:19:35;9.68;;;6.32;;
71038;SDS011;58692;43.212;27.908;2023-06-24T08:22:01;11.37;;;6.50;;
71038;SDS011;58692;43.212;27.908;2023-06-24T08:24:27;12.23;;;7.15;;
71038;SDS011;58692;43.212;27.908;2023-06-24T08:26:53;10.57;;;6.40;;
71038;SDS011;58692;43.212;27.908;2023-06-24T08:29:18;10.83;;;5.90;;
71038;SDS011;58692;43.212;27.908;2023-06-24T08:31:44;10.13;;;6.53;;
71038;SDS011;58692;43.212;27.908;2023-06-24T08:34:09;11.13;;;6.93;;
71038;SDS011;58692;43.212;27.908;2023-06-24T08:36:35;10.43;;;6.30;;
71038;SDS011;58692;43.212;27.908;2023-06-24T08:39:02;10.27;;;6.30;;
71038;SDS011;58692;43.212;27.908;2023-06-24T08:41:28;9.53;;;6.37;;
71038;SDS011;58692;43.212;27.908;2023-06-24T08:43:53;9.88;;;5.85;;
71038;SDS011;58692;43.212;27.908;2023-06-24T08:46:19;9.97;;;7.00;;
71038;SDS011;58692;43.212;27.908;2023-06-24T08:48:46;9.55;;;6.18;;
71038;SDS011;58692;43.212;27.908;2023-06-24T08:51:15;8.23;;;5.80;;
71038;SDS011;58692;43.212;27.908;2023-06-24T08:53:46;10.73;;;5.80;;
71038;SDS011;58692;43.212;27.908;2023-06-24T08:56:13;9.43;;;5.90;;
71038;SDS011;58692;43.212;27.908;2023-06-24T08:58:39;9.77;;;6.30;;
71038;SDS011;58692;43.212;27.908;2023-06-24T09:01:05;9.93;;;5.90;;
71038;SDS011;58692;43.212;27.908;2023-06-24T09:03:31;9.95;;;5.55;;
71038;SDS011;58692;43.212;27.908;2023-06-24T09:05:58;8.88;;;5.57;;
71038;SDS011;58692;43.212;27.908;2023-06-24T09:08:24;9.80;;;5.80;;
71038;SDS011;58692;43.212;27.908;2023-06-24T09:10:52;9.60;;;5.37;;
71038;SDS011;58692;43.212;27.908;2023-06-24T09:13:20;8.25;;;5.47;;
71038;SDS011;58692;43.212;27.908;2023-06-24T09:15:48;9.23;;;5.63;;
71038;SDS011;58692;43.212;27.908;2023-06-24T09:18:14;9.55;;;5.35;;
71038;SDS011;58692;43.212;27.908;2023-06-24T09:20:42;11.82;;;5.30;;
71038;SDS011;58692;43.212;27.908;2023-06-24T09:23:10;8.23;;;5.23;;
71038;SDS011;58692;43.212;27.908;2023-06-24T09:25:35;7.63;;;4.78;;
71038;SDS011;58692;43.212;27.908;2023-06-24T09:28:02;9.50;;;5.63;;
71038;SDS011;58692;43.212;27.908;2023-06-24T09:30:28;9.57;;;5.33;;
71038;SDS011;58692;43.212;27.908;2023-06-24T09:32:54;8.15;;;4.93;;
71038;SDS011;58692;43.212;27.908;2023-06-24T09:35:21;8.23;;;5.25;;
71038;SDS011;58692;43.212;27.908;2023-06-24T09:37:49;9.68;;;5.53;;
71038;SDS011;58692;43.212;27.908;2023-06-24T09:40:17;10.20;;;5.20;;
71038;SDS011;58692;43.212;27.908;2023-06-24T09:47:51;8.20;;;5.40;;
71038;SDS011;58692;43.212;27.908;2023-06-24T09:50:17;9.23;;;5.45;;
71038;SDS011;58692;43.212;27.908;2023-06-24T09:52:44;8.90;;;5.85;;
71038;SDS011;58692;43.212;27.908;2023-06-24T09:55:12;9.38;;;5.82;;
71038;SDS011;58692;43.212;27.908;2023-06-24T09:57:40;10.83;;;5.50;;
71038;SDS011;58692;43.212;27.908;2023-06-24T10:00:09;9.15;;;5.50;;
71038;SDS011;58692;43.212;27.908;2023-06-24T10:02:35;8.38;;;5.50;;
71038;SDS011;58692;43.212;27.908;2023-06-24T10:05:02;9.85;;;5.75;;
71038;SDS011;58692;43.212;27.908;2023-06-24T10:07:29;10.55;;;5.78;;
71038;SDS011;58692;43.212;27.908;2023-06-24T10:09:56;11.30;;;5.50;;
71038;SDS011;58692;43.212;27.908;2023-06-24T10:12:22;9.43;;;5.72;;
71038;SDS011;58692;43.212;27.908;2023-06-24T10:14:47;9.20;;;5.47;;
71038;SDS011;58692;43.212;27.908;2023-06-24T10:17:13;9.23;;;5.90;;
71038;SDS011;58692;43.212;27.908;2023-06-24T10:19:40;10.23;;;5.40;;
71038;SDS011;58692;43.212;27.908;2023-06-24T10:22:09;8.80;;;5.70;;
71038;SDS011;58692;43.212;27.908;2023-06-24T10:24:36;9.90;;;5.63;;
71038;SDS011;58692;43.212;27.908;2023-06-24T10:29:33;9.53;;;5.80;;
71038;SDS011;58692;43.212;27.908;2023-06-24T10:32:00;9.88;;;6.03;;
71038;SDS011;58692;43.212;27.908;2023-06-24T10:34:29;7.88;;;5.57;;
71038;SDS011;58692;43.212;27.908;2023-06-24T10:37:00;9.60;;;5.63;;
71038;SDS011;58692;43.212;27.908;2023-06-24T10:39:39;9.30;;;5.50;;
71038;SDS011;58692;43.212;27.908;2023-06-24T10:44:54;8.73;;;5.40;;
71038;SDS011;58692;43.212;27.908;2023-06-24T10:47:22;9.55;;;5.60;;
71038;SDS011;58692;43.212;27.908;2023-06-24T10:49:48;9.27;;;5.97;;
71038;SDS011;58692;43.212;27.908;2023-06-24T10:52:14;8.77;;;5.50;;
71038;SDS011;58692;43.212;27.908;2023-06-24T10:54:42;12.27;;;5.67;;
71038;SDS011;58692;43.212;27.908;2023-06-24T10:57:10;11.77;;;6.15;;
71038;SDS011;58692;43.212;27.908;2023-06-24T10:59:40;8.65;;;5.30;;
71038;SDS011;58692;43.212;27.908;2023-06-24T11:02:07;9.10;;;5.63;;
71038;SDS011;58692;43.212;27.908;2023-06-24T11:04:42;8.45;;;5.28;;
71038;SDS011;58692;43.212;27.908;2023-06-24T11:07:11;9.15;;;5.68;;
71038;SDS011;58692;43.212;27.908;2023-06-24T11:09:37;9.93;;;5.97;;
71038;SDS011;58692;43.212;27.908;2023-06-24T11:12:03;9.63;;;5.50;;
71038;SDS011;58692;43.212;27.908;2023-06-24T11:14:29;8.07;;;5.25;;
71038;SDS011;58692;43.212;27.908;2023-06-24T11:16:54;8.90;;;5.40;;
71038;SDS011;58692;43.212;27.908;2023-06-24T11:19:20;10.57;;;5.78;;
71038;SDS011;58692;43.212;27.908;2023-06-24T11:21:45;10.33;;;5.70;;
71038;SDS011;58692;43.212;27.908;2023-06-24T11:24:11;9.75;;;5.57;;
71038;SDS011;58692;43.212;27.908;2023-06-24T11:26:36;8.27;;;5.73;;
71038;SDS011;58692;43.212;27.908;2023-06-24T11:29:11;8.57;;;5.63;;
71038;SDS011;58692;43.212;27.908;2023-06-24T11:31:36;9.10;;;5.23;;
71038;SDS011;58692;43.212;27.908;2023-06-24T11:34:03;8.75;;;5.40;;
71038;SDS011;58692;43.212;27.908;2023-06-24T11:36:29;8.55;;;5.53;;
71038;SDS011;58692;43.212;27.908;2023-06-24T11:38:55;13.10;;;5.55;;
71038;SDS011;58692;43.212;27.908;2023-06-24T11:41:21;12.87;;;5.53;;
71038;SDS011;58692;43.212;27.908;2023-06-24T11:43:48;8.60;;;5.72;;
71038;SDS011;58692;43.212;27.908;2023-06-24T11:49:03;9.07;;;5.50;;
71038;SDS011;58692;43.212;27.908;2023-06-24T11:51:30;9.05;;;5.38;;
71038;SDS011;58692;43.212;27.908;2023-06-24T11:53:58;9.50;;;5.27;;
71038;SDS011;58692;43.212;27.908;2023-06-24T11:59:07;9.50;;;5.43;;
71038;SDS011;58692;43.212;27.908;2023-06-24T12:01:43;9.95;;;5.25;;
71038;SDS011;58692;43.212;27.908;2023-06-24T12:04:09;9.20;;;5.65;;
71038;SDS011;58692;43.212;27.908;2023-06-24T12:06:36;9.47;;;5.60;;
71038;SDS011;58692;43.212;27.908;2023-06-24T12:09:01;9.38;;;5.50;;
71038;SDS011;58692;43.212;27.908;2023-06-24T12:11:27;8.40;;;5.17;;
71038;SDS011;58692;43.212;27.908;2023-06-24T12:13:52;10.33;;;5.03;;
71038;SDS011;58692;43.212;27.908;2023-06-24T12:16:18;10.13;;;5.80;;
71038;SDS011;58692;43.212;27.908;2023-06-24T12:18:43;12.53;;;5.73;;
71038;SDS011;58692;43.212;27.908;2023-06-24T12:21:09;8.68;;;5.70;;
71038;SDS011;58692;43.212;27.908;2023-06-24T12:23:35;12.35;;;6.05;;
71038;SDS011;58692;43.212;27.908;2023-06-24T12:26:01;9.17;;;5.57;;
71038;SDS011;58692;43.212;27.908;2023-06-24T12:28:26;8.43;;;5.23;;
71038;SDS011;58692;43.212;27.908;2023-06-24T12:30:51;9.00;;;5.53;;
71038;SDS011;58692;43.212;27.908;2023-06-24T12:33:17;9.00;;;4.97;;
71038;SDS011;58692;43.212;27.908;2023-06-24T12:35:44;8.50;;;5.45;;
71038;SDS011;58692;43.212;27.908;2023-06-24T12:38:10;8.87;;;5.20;;
71038;SDS011;58692;43.212;27.908;2023-06-24T12:40:36;9.90;;;5.65;;
71038;SDS011;58692;43.212;27.908;2023-06-24T12:43:01;10.27;;;5.57;;
71038;SDS011;58692;43.212;27.908;2023-06-24T12:45:28;8.75;;;5.50;;
71038;SDS011;58692;43.212;27.908;2023-06-24T12:47:53;11.63;;;5.67;;
71038;SDS011;58692;43.212;27.908;2023-06-24T12:50:19;8.87;;;5.43;;
71038;SDS011;58692;43.212;27.908;2023-06-24T12:52:44;9.43;;;5.63;;
71038;SDS011;58692;43.212;27.908;2023-06-24T12:55:10;10.67;;;5.70;;
71038;SDS011;58692;43.212;27.908;2023-06-24T12:57:35;11.15;;;5.32;;
71038;SDS011;58692;43.212;27.908;2023-06-24T13:00:01;11.30;;;5.53;;
71038;SDS011;58692;43.212;27.908;2023-06-24T13:02:30;9.88;;;5.57;;
71038;SDS011;58692;43.212;27.908;2023-06-24T13:04:55;10.20;;;6.20;;
71038;SDS011;58692;43.212;27.908;2023-06-24T13:07:21;9.90;;;5.30;;
71038;SDS011;58692;43.212;27.908;2023-06-24T13:09:47;8.87;;;5.43;;
71038;SDS011;58692;43.212;27.908;2023-06-24T13:12:12;10.10;;;5.43;;
71038;SDS011;58692;43.212;27.908;2023-06-24T13:14:38;10.18;;;5.55;;
71038;SDS011;58692;43.212;27.908;2023-06-24T13:17:03;9.23;;;5.50;;
71038;SDS011;58692;43.212;27.908;2023-06-24T13:19:29;11.40;;;5.50;;
71038;SDS011;58692;43.212;27.908;2023-06-24T13:21:55;11.97;;;5.93;;
71038;SDS011;58692;43.212;27.908;2023-06-24T13:24:20;9.77;;;5.82;;
71038;SDS011;58692;43.212;27.908;2023-06-24T13:26:46;8.93;;;5.23;;
71038;SDS011;58692;43.212;27.908;2023-06-24T13:29:11;11.33;;;5.70;;
71038;SDS011;58692;43.212;27.908;2023-06-24T13:31:38;14.40;;;6.18;;
71038;SDS011;58692;43.212;27.908;2023-06-24T13:34:03;9.32;;;5.50;;
71038;SDS011;58692;43.212;27.908;2023-06-24T13:36:33;10.17;;;5.50;;
71038;SDS011;58692;43.212;27.908;2023-06-24T13:39:03;12.18;;;5.53;;
71038;SDS011;58692;43.212;27.908;2023-06-24T13:41:30;10.43;;;5.85;;
71038;SDS011;58692;43.212;27.908;2023-06-24T13:43:57;9.60;;;5.50;;
71038;SDS011;58692;43.212;27.908;2023-06-24T13:46:24;10.02;;;5.78;;
71038;SDS011;58692;43.212;27.908;2023-06-24T13:48:49;11.30;;;6.13;;
71038;SDS011;58692;43.212;27.908;2023-06-24T13:51:15;10.23;;;5.68;;
71038;SDS011;58692;43.212;27.908;2023-06-24T13:53:42;9.75;;;5.43;;
71038;SDS011;58692;43.212;27.908;2023-06-24T13:56:08;11.70;;;6.53;;
71038;SDS011;58692;43.212;27.908;2023-06-24T13:58:34;9.80;;;5.45;;
71038;SDS011;58692;43.212;27.908;2023-06-24T14:00:59;9.87;;;5.97;;
71038;SDS011;58692;43.212;27.908;2023-06-24T14:03:25;10.38;;;6.18;;
71038;SDS011;58692;43.212;27.908;2023-06-24T14:05:50;9.60;;;5.87;;
71038;SDS011;58692;43.212;27.908;2023-06-24T14:08:16;11.03;;;5.80;;
71038;SDS011;58692;43.212;27.908;2023-06-24T14:10:41;9.00;;;5.57;;
71038;SDS011;58692;43.212;27.908;2023-06-24T14:13:07;9.88;;;5.60;;
71038;SDS011;58692;43.212;27.908;2023-06-24T14:15:32;9.77;;;5.50;;
71038;SDS011;58692;43.212;27.908;2023-06-24T14:17:58;10.03;;;6.10;;
71038;SDS011;58692;43.212;27.908;2023-06-24T14:20:24;11.77;;;6.10;;
71038;SDS011;58692;43.212;27.908;2023-06-24T14:22:50;10.50;;;6.07;;
71038;SDS011;58692;43.212;27.908;2023-06-24T14:25:16;8.77;;;5.80;;
71038;SDS011;58692;43.212;27.908;2023-06-24T14:27:42;10.48;;;6.00;;
71038;SDS011;58692;43.212;27.908;2023-06-24T14:30:08;9.88;;;5.80;;
71038;SDS011;58692;43.212;27.908;2023-06-24T14:32:34;12.23;;;6.27;;
71038;SDS011;58692;43.212;27.908;2023-06-24T14:34:59;10.30;;;5.73;;